• Join FlightAware (Why Join?)
  • Login
  • US Flag 
Rudolph Flight #1: Arrived! 
06:48PM EST


 

Airport Tracker/Info


-or-


 

Live Flight TrackerFlight Track Log ✈ AAL1796 ✈ 13-Apr-2013 ✈ KDFW - KMCI

Flight Track Log - Related Links

Times and Time Zones

All times are in EDT time to prevent confusion due to time zone crossing. See the AAL1796 flight status page for this flight to view local times or setup timezone preferences in your user account.

Time Position Orientation Groundspeed Altitude Reporting Facility
EDT Latitude Longitude Course Direction KTS MPH feet Rate Location/Type
06:30PM 32.8667 -97.0500 331° Northwest 175 201 2,700  Level Dallas / Fort Worth TRACON
06:31PM 32.8000 -97.0667 192° South 238 274 6,000 3,300 Climbing Dallas / Fort Worth TRACON
06:32PM 32.7667 -97.1333 239° Southwest 275 316 9,300 3,300 Climbing Dallas / Fort Worth TRACON
06:32PM 32.7747 -97.2158 277° West 289 333 12,000 2,520 Climbing Fort Worth Center
06:33PM 32.9880 -96.8028 333° Northwest  Level FlightAware Approximate
06:33PM 32.8436 -97.2750 324° Northwest 294 338 13,900  Level Fort Worth Center
06:34PM 33.0975 -96.8705 331° Northwest  Level FlightAware Approximate
06:34PM 32.9458 -97.2253 22° Northeast 327 376 16,700  Level Fort Worth Center
06:35PM 33.2052 -96.9423 331° Northwest  Level FlightAware Approximate
06:35PM 33.0544 -97.1853 17° North 363 418 19,400  Level Fort Worth Center
06:36PM 33.1650 -97.1478 16° North 405 466 22,100 2,340 Climbing Fort Worth Center
06:37PM 33.2819 -97.1103 15° North 419 482 24,100 1,800 Climbing Fort Worth Center
06:38PM 33.4006 -97.0700 16° North 434 499 25,700 1,620 Climbing Fort Worth Center
06:39PM 33.5217 -97.0297 15° North 434 499 27,400 1,740 Climbing Fort Worth Center
06:40PM 33.6467 -96.9867 16° North 457 526 29,200 1,740 Climbing Fort Worth Center
06:41PM 33.7719 -96.9461 15° North 457 526 30,900 1,380 Climbing Fort Worth Center
06:42PM 33.8947 -96.9056 15° North 457 526 32,000 960 Climbing Fort Worth Center
06:43PM 34.0053 -96.8697 15° North 457 526 32,900 1,080 Climbing Fort Worth Center
06:44PM 34.1364 -96.8264 15° North 451 519 34,200 1,200 Climbing Fort Worth Center
06:45PM 34.2614 -96.7828 16° North 451 519 35,300 900 Climbing Fort Worth Center
06:46PM 34.3886 -96.7392 16° North 456 525 36,100 840 Climbing Fort Worth Center
06:47PM 34.5136 -96.6978 15° North 456 525 37,000 420 Climbing Fort Worth Center
06:48PM 34.6425 -96.6539 16° North 461 531 37,000  Level Fort Worth Center
06:49PM 34.7697 -96.6122 15° North 466 536 37,000  Level Fort Worth Center
06:50PM 34.8967 -96.5681 16° North 466 536 37,000  Level Fort Worth Center
06:51PM 35.0214 -96.5236 16° North 466 536 37,000  Level Fort Worth Center
06:52PM 35.1506 -96.4792 16° North 466 536 37,000  Level Fort Worth Center
06:53PM 35.2772 -96.4369 15° North 471 542 37,000  Level Fort Worth Center
06:56PM 35.5708 -96.3350 16° North 470 541 37,000  Level Kansas City Center
06:57PM 35.6969 -96.2908 16° North 473 544 37,000  Level Kansas City Center
06:58PM 35.8228 -96.2483 15° North 472 543 37,000  Level Kansas City Center
06:59PM 35.9519 -96.2044 15° North 476 548 37,000  Level Kansas City Center
07:00PM 36.0800 -96.1583 16° North 477 549 37,000  Level Kansas City Center
07:01PM 36.2314 -96.1053 16° North 471 542 37,000  Level Kansas City Center
07:02PM 36.3578 -96.0603 16° North 469 540 37,000  Level Kansas City Center
07:03PM 36.4869 -96.0247 12° North 469 540 37,000  Level Kansas City Center
07:04PM 36.6142 -95.9953 11° North 464 534 37,000  Level Kansas City Center
07:05PM 36.7400 -95.9625 12° North 459 528 37,000  Level Kansas City Center
07:06PM 36.8653 -95.9306 12° North 456 525 37,000  Level Kansas City Center
07:07PM 36.9889 -95.9011 11° North 450 518 37,000  Level Kansas City Center
07:08PM 37.1142 -95.8683 12° North 454 522 37,000  Level Kansas City Center
07:09PM 37.2389 -95.8364 12° North 456 525 37,000  Level Kansas City Center
07:10PM 37.3628 -95.8042 12° North 453 521 37,000  Level Kansas City Center
07:11PM 37.4861 -95.7711 12° North 452 520 37,000 -120 Level Kansas City Center
07:12PM 37.6344 -95.7314 12° North 451 519 36,800 -1,140 Descending Kansas City Center
07:13PM 37.7567 -95.6983 12° North 448 516 34,700 -2,100 Descending Kansas City Center
07:14PM 37.8786 -95.6689 11° North 445 512 32,500 -3,000 Descending Kansas City Center
07:15PM 38.0000 -95.6386 11° North 442 509 28,700 -3,180 Descending Kansas City Center
07:16PM 38.1186 -95.6067 12° North 453 521 26,100 -2,280 Descending Kansas City Center
07:17PM 38.2531 -95.5714 12° North 441 507 24,000 -1,920 Descending Kansas City Center
07:18PM 38.3642 -95.5419 12° North 429 494 22,200 -1,920 Descending Kansas City Center
07:19PM 38.4922 -95.5072 12° North 422 486 20,200 -1,800 Descending Kansas City Center
07:20PM 38.5986 -95.4783 12° North 411 473 18,600 -1,680 Descending Kansas City Center
07:22PM 38.7033 -95.4503 12° North 403 464 16,700 -1,860 Descending Kansas City Center
07:23PM 38.8203 -95.3997 19° North 408 470 14,800 -1,800 Descending Kansas City Center
07:24PM 38.8953 -95.2958 47° Northeast 419 482 13,200 -1,500 Descending Kansas City Center
07:25PM 38.9831 -95.1861 44° Northeast 398 458 11,700 -1,200 Descending Kansas City Center
07:26PM 39.0667 -95.1233 30° Northeast 368 423 10,800 -1,140 Descending Kansas City Center
07:27PM 39.1506 -95.0567 32° Northeast 321 369 9,400 -1,500 Descending Kansas City Center
07:28PM 39.2189 -94.9917 36° Northeast 321 369 7,800 -1,680 Descending Kansas City Center
07:29PM 39.2997 -94.9231 33° Northeast 314 361 6,100 -1,380 Descending Kansas City Center
07:30PM 39.3706 -94.8750 28° Northeast 302 348 5,000 -1,020 Descending Kansas City Center
07:31PM 39.4311 -94.8169 37° Northeast 242 278 4,000 -960 Descending Kansas City Center